createdAt,value
2018-09-23T00:01:41.693Z,9.70
2018-09-23T00:04:17.154Z,9.70
2018-09-23T00:06:52.637Z,9.70
2018-09-23T00:09:28.027Z,9.70
2018-09-23T00:12:03.708Z,9.80
2018-09-23T00:14:39.177Z,9.70
2018-09-23T00:17:14.896Z,9.70
2018-09-23T00:19:50.529Z,9.70
2018-09-23T00:22:26.031Z,9.70
2018-09-23T00:25:01.360Z,9.70
2018-09-23T00:27:36.817Z,9.60
2018-09-23T00:30:12.281Z,9.60
2018-09-23T00:32:47.849Z,9.50
2018-09-23T00:35:23.342Z,9.50
2018-09-23T00:37:58.801Z,9.50
2018-09-23T00:40:34.273Z,9.40
2018-09-23T00:43:09.769Z,9.40
2018-09-23T00:45:45.252Z,9.40
2018-09-23T00:48:20.838Z,9.40
2018-09-23T00:50:56.091Z,9.40
2018-09-23T00:53:31.681Z,9.40
2018-09-23T00:56:07.917Z,9.40
2018-09-23T00:58:43.209Z,9.40
2018-09-23T01:01:18.705Z,9.50
2018-09-23T01:03:54.297Z,9.50
2018-09-23T01:06:29.650Z,9.40
2018-09-23T01:09:07.352Z,9.40
2018-09-23T01:11:42.846Z,9.40
2018-09-23T01:14:18.269Z,9.40
2018-09-23T01:16:53.680Z,9.40
2018-09-23T01:19:29.197Z,9.40
2018-09-23T01:22:04.620Z,9.30
2018-09-23T01:24:40.152Z,9.30
2018-09-23T01:27:15.591Z,9.20
2018-09-23T01:29:51.025Z,9.20
2018-09-23T01:32:26.616Z,9.20
2018-09-23T01:35:02.213Z,9.20
2018-09-23T01:37:37.705Z,9.20
2018-09-23T01:40:13.474Z,9.20
2018-09-23T01:42:48.781Z,9.30
2018-09-23T01:45:24.384Z,9.20
2018-09-23T01:47:59.716Z,9.30
2018-09-23T01:50:35.154Z,9.30
2018-09-23T01:53:10.484Z,9.30
2018-09-23T01:55:45.933Z,9.30
2018-09-23T01:58:21.332Z,9.30
2018-09-23T02:00:56.724Z,9.30
2018-09-23T02:03:32.435Z,9.40
2018-09-23T02:06:08.021Z,9.40
2018-09-23T02:08:43.278Z,9.40
2018-09-23T02:11:18.798Z,9.40
2018-09-23T02:13:54.289Z,9.40
2018-09-23T02:16:29.943Z,9.40
2018-09-23T02:19:05.421Z,9.30
2018-09-23T02:21:40.797Z,9.30
2018-09-23T02:24:16.146Z,9.30
2018-09-23T02:26:51.692Z,9.20
2018-09-23T02:29:26.941Z,9.20
2018-09-23T02:32:02.432Z,9.10
2018-09-23T02:34:37.867Z,9.10
2018-09-23T02:37:13.358Z,9.10
2018-09-23T02:39:48.640Z,9.10
2018-09-23T02:42:24.243Z,9.10
2018-09-23T02:44:59.694Z,9.20
2018-09-23T02:47:35.476Z,9.20
2018-09-23T02:50:10.784Z,9.20
2018-09-23T02:52:46.233Z,9.20
2018-09-23T02:55:21.701Z,9.30
2018-09-23T02:57:57.241Z,9.30
2018-09-23T03:00:32.453Z,9.30
2018-09-23T03:03:07.837Z,9.30
2018-09-23T03:05:43.743Z,9.30
2018-09-23T03:08:19.294Z,9.40
2018-09-23T03:10:54.801Z,9.40
2018-09-23T03:13:30.326Z,9.40
2018-09-23T03:16:05.735Z,9.40
2018-09-23T03:18:41.294Z,9.40
2018-09-23T03:21:16.720Z,9.40
2018-09-23T03:23:52.207Z,9.40
2018-09-23T03:26:27.591Z,9.40
2018-09-23T03:29:03.145Z,9.40
2018-09-23T03:31:38.588Z,9.50
2018-09-23T03:34:14.216Z,9.50
2018-09-23T03:36:49.765Z,9.50
2018-09-23T03:39:25.137Z,9.50
2018-09-23T03:42:00.517Z,9.50
2018-09-23T03:44:36.029Z,9.50
2018-09-23T03:47:11.569Z,9.60
2018-09-23T03:49:46.897Z,9.50
2018-09-23T03:52:22.237Z,9.60
2018-09-23T03:54:57.576Z,9.60
2018-09-23T03:57:33.136Z,9.60
2018-09-23T04:00:08.660Z,9.60
2018-09-23T04:02:43.977Z,9.60
2018-09-23T04:05:19.413Z,9.70
2018-09-23T04:07:54.874Z,9.70
2018-09-23T04:10:30.281Z,9.60
2018-09-23T04:13:05.665Z,9.60
2018-09-23T04:15:41.308Z,9.60
2018-09-23T04:18:16.632Z,9.70
2018-09-23T04:20:51.962Z,9.70
2018-09-23T04:23:27.293Z,9.70
2018-09-23T04:26:02.741Z,9.70
2018-09-23T04:28:38.249Z,9.60
2018-09-23T04:31:13.684Z,9.60
2018-09-23T04:33:49.188Z,9.70
2018-09-23T04:36:24.786Z,9.60
2018-09-23T04:39:00.264Z,9.60
2018-09-23T04:41:35.768Z,9.60
2018-09-23T04:44:11.405Z,9.60
2018-09-23T04:46:47.049Z,9.60
2018-09-23T04:49:22.568Z,9.60
2018-09-23T04:51:57.945Z,9.60
2018-09-23T04:54:33.383Z,9.50
2018-09-23T04:57:08.856Z,9.50
2018-09-23T04:59:44.185Z,9.50
2018-09-23T05:02:19.592Z,9.40
2018-09-23T05:04:55.085Z,9.50
2018-09-23T05:07:30.596Z,9.50
2018-09-23T05:10:06.085Z,9.60
2018-09-23T05:12:41.741Z,9.60
2018-09-23T05:15:17.099Z,9.60
2018-09-23T05:17:52.652Z,9.70
2018-09-23T05:20:28.143Z,9.70
2018-09-23T05:23:03.737Z,9.70
2018-09-23T05:25:39.253Z,9.80
2018-09-23T05:28:14.731Z,9.80
2018-09-23T05:30:50.150Z,9.90
2018-09-23T05:33:25.597Z,10.00
2018-09-23T05:36:00.821Z,10.00
2018-09-23T05:38:36.411Z,10.00
2018-09-23T05:41:11.749Z,10.10
2018-09-23T05:43:47.277Z,10.10
2018-09-23T05:46:22.777Z,10.10
2018-09-23T05:48:58.153Z,10.10
2018-09-23T05:51:33.394Z,10.20
2018-09-23T05:54:09.009Z,10.20
2018-09-23T05:56:44.532Z,10.30
2018-09-23T05:59:20.117Z,10.30
2018-09-23T06:01:55.651Z,10.40
2018-09-23T06:04:31.193Z,10.40
2018-09-23T06:07:06.552Z,10.40
2018-09-23T06:09:41.976Z,10.40
2018-09-23T06:12:17.340Z,10.50
2018-09-23T06:14:52.722Z,10.50
2018-09-23T06:17:28.093Z,10.60
2018-09-23T06:20:03.688Z,10.60
2018-09-23T06:22:38.932Z,10.70
2018-09-23T06:25:14.409Z,10.70
2018-09-23T06:27:49.977Z,10.80
2018-09-23T06:30:25.520Z,10.90
2018-09-23T06:33:00.969Z,11.00
2018-09-23T06:35:36.552Z,11.10
2018-09-23T06:38:11.909Z,11.20
2018-09-23T06:40:47.501Z,11.30
2018-09-23T06:43:23.262Z,11.30
2018-09-23T06:45:58.833Z,11.40
2018-09-23T06:48:34.135Z,11.50
2018-09-23T06:51:09.087Z,11.50
2018-09-23T06:53:43.680Z,11.60
2018-09-23T06:56:18.536Z,11.60
2018-09-23T06:58:53.953Z,11.70
2018-09-23T07:01:29.285Z,11.70
2018-09-23T07:04:04.800Z,11.80
2018-09-23T07:06:40.213Z,11.90
2018-09-23T07:09:15.721Z,12.00
2018-09-23T07:11:51.074Z,12.10
2018-09-23T07:14:26.546Z,12.20
2018-09-23T07:17:02.017Z,12.50
2018-09-23T07:19:37.496Z,12.60
2018-09-23T07:22:12.532Z,12.70
2018-09-23T07:24:47.143Z,12.80
2018-09-23T07:27:22.060Z,12.80
2018-09-23T07:29:56.900Z,12.90
2018-09-23T07:32:31.818Z,12.90
2018-09-23T07:35:06.631Z,13.00
2018-09-23T07:37:41.482Z,13.10
2018-09-23T07:40:16.876Z,13.20
2018-09-23T07:42:52.514Z,13.50
2018-09-23T07:45:27.248Z,13.60
2018-09-23T07:48:03.008Z,13.60
2018-09-23T07:50:38.633Z,13.50
2018-09-23T07:53:13.932Z,13.50
2018-09-23T07:55:48.720Z,13.30
2018-09-23T07:58:23.435Z,13.20
2018-09-23T08:00:58.166Z,13.20
2018-09-23T08:03:33.722Z,13.30
2018-09-23T08:06:09.111Z,13.50
2018-09-23T08:08:44.657Z,13.50
2018-09-23T08:11:19.642Z,13.70
2018-09-23T08:13:54.991Z,13.90
2018-09-23T08:16:29.141Z,14.00
2018-09-23T08:19:04.849Z,14.20
2018-09-23T08:21:40.141Z,14.20
2018-09-23T08:24:15.048Z,14.30
2018-09-23T08:26:49.732Z,14.40
2018-09-23T08:29:24.558Z,14.40
2018-09-23T08:31:59.369Z,14.40
2018-09-23T08:34:34.097Z,14.40
2018-09-23T08:37:08.764Z,14.60
2018-09-23T08:39:44.472Z,14.60
2018-09-23T08:42:19.401Z,14.80
2018-09-23T08:44:54.493Z,14.80
2018-09-23T08:47:29.124Z,14.90
2018-09-23T08:50:03.953Z,14.90
2018-09-23T08:52:38.709Z,14.60
2018-09-23T08:55:13.576Z,14.80
2018-09-23T08:57:48.386Z,15.00
2018-09-23T09:00:23.365Z,15.20
2018-09-23T09:02:58.056Z,15.30
2018-09-23T09:05:32.879Z,15.00
2018-09-23T09:08:07.503Z,15.40
2018-09-23T09:10:42.251Z,15.80
2018-09-23T09:13:16.838Z,16.30
2018-09-23T09:15:51.626Z,16.50
2018-09-23T09:18:27.338Z,16.70
2018-09-23T09:21:03.112Z,16.20
2018-09-23T09:23:38.443Z,16.00
2018-09-23T09:26:14.074Z,16.10
2018-09-23T09:28:49.581Z,16.40
2018-09-23T09:31:25.006Z,16.60
2018-09-23T09:34:00.247Z,16.60
2018-09-23T09:36:35.687Z,16.60
2018-09-23T09:39:11.921Z,16.60
2018-09-23T09:41:47.697Z,16.20
2018-09-23T09:44:23.157Z,16.10
2018-09-23T09:46:58.574Z,16.30
2018-09-23T09:49:34.141Z,16.50
2018-09-23T09:52:09.517Z,16.40
2018-09-23T09:54:44.921Z,16.30
2018-09-23T09:57:20.610Z,16.10
2018-09-23T09:59:56.285Z,16.20
2018-09-23T10:02:31.848Z,16.40
2018-09-23T10:05:07.345Z,16.10
2018-09-23T10:07:42.636Z,16.10
2018-09-23T10:10:18.059Z,16.30
2018-09-23T10:12:53.770Z,16.00
2018-09-23T10:15:29.229Z,15.90
2018-09-23T10:18:04.815Z,15.60
2018-09-23T10:20:40.297Z,15.40
2018-09-23T10:23:15.941Z,15.50
2018-09-23T10:25:51.222Z,15.50
2018-09-23T10:28:26.821Z,15.70
2018-09-23T10:31:02.068Z,15.80
2018-09-23T10:33:37.618Z,15.50
2018-09-23T10:36:13.059Z,15.40
2018-09-23T10:38:48.665Z,15.50
2018-09-23T10:41:24.208Z,15.50
2018-09-23T10:43:59.813Z,15.30
2018-09-23T10:46:36.173Z,15.40
2018-09-23T10:49:11.779Z,15.50
2018-09-23T10:51:47.145Z,15.40
2018-09-23T10:54:22.756Z,15.30
2018-09-23T10:56:58.093Z,15.50
2018-09-23T10:59:33.603Z,15.50
2018-09-23T11:02:09.057Z,15.40
2018-09-23T11:04:44.640Z,15.30
2018-09-23T11:07:20.000Z,15.20
2018-09-23T11:09:55.524Z,15.20
2018-09-23T11:12:31.066Z,15.30
2018-09-23T11:15:06.554Z,15.40
2018-09-23T11:17:41.980Z,15.30
2018-09-23T11:20:24.756Z,15.20
2018-09-23T11:23:00.137Z,15.20
2018-09-23T11:25:35.636Z,15.20
2018-09-23T11:28:11.187Z,15.10
2018-09-23T11:30:46.800Z,15.10
2018-09-23T11:33:22.241Z,15.20
2018-09-23T11:35:57.759Z,15.20
2018-09-23T11:38:33.246Z,15.30
2018-09-23T11:41:08.821Z,15.50
2018-09-23T11:43:44.398Z,15.70
2018-09-23T11:46:19.991Z,15.90
2018-09-23T11:48:55.522Z,15.70
2018-09-23T11:51:31.183Z,15.60
2018-09-23T11:54:06.445Z,15.50
2018-09-23T11:56:42.090Z,15.30
2018-09-23T11:59:17.533Z,15.40
2018-09-23T12:01:54.584Z,15.30
2018-09-23T12:04:30.076Z,15.30
2018-09-23T12:07:05.491Z,15.40
2018-09-23T12:09:40.991Z,15.40
2018-09-23T12:12:16.437Z,15.50
2018-09-23T12:14:51.840Z,15.60
2018-09-23T12:17:27.315Z,15.50
2018-09-23T12:20:02.894Z,15.50
2018-09-23T12:22:38.373Z,15.50
2018-09-23T12:25:13.853Z,15.50
2018-09-23T12:27:49.299Z,15.50
2018-09-23T12:30:24.825Z,15.40
2018-09-23T12:33:00.132Z,15.30
2018-09-23T12:35:35.528Z,15.10
2018-09-23T12:38:10.973Z,14.90
2018-09-23T12:40:46.489Z,14.80
2018-09-23T12:43:21.328Z,14.50
2018-09-23T12:45:56.547Z,14.30
2018-09-23T12:48:31.357Z,13.80
2018-09-23T12:51:05.981Z,13.30
2018-09-23T12:53:41.486Z,13.10
2018-09-23T12:56:17.010Z,12.80
2018-09-23T12:58:52.454Z,12.70
2018-09-23T13:01:27.794Z,12.60
2018-09-23T13:04:03.202Z,12.50
2018-09-23T13:06:38.840Z,12.40
2018-09-23T13:09:14.334Z,12.40
2018-09-23T13:11:49.530Z,12.50
2018-09-23T13:14:24.980Z,12.50
2018-09-23T13:17:00.511Z,12.50
2018-09-23T13:19:36.231Z,12.40
2018-09-23T13:22:11.855Z,12.50
2018-09-23T13:24:47.357Z,12.50
2018-09-23T13:27:22.797Z,12.50
2018-09-23T13:29:58.306Z,12.50
2018-09-23T13:32:33.619Z,12.50
2018-09-23T13:35:09.053Z,12.50
2018-09-23T13:37:44.573Z,12.50
2018-09-23T13:40:20.013Z,12.60
2018-09-23T13:42:55.447Z,12.60
2018-09-23T13:45:31.261Z,12.60
2018-09-23T13:48:06.961Z,12.50
2018-09-23T13:50:42.576Z,12.50
2018-09-23T13:53:17.870Z,12.40
2018-09-23T13:55:53.408Z,12.40
2018-09-23T13:58:28.805Z,12.40
2018-09-23T14:01:04.281Z,12.40
2018-09-23T14:03:39.828Z,12.30
2018-09-23T14:06:15.272Z,12.30
2018-09-23T14:08:50.726Z,12.30
2018-09-23T14:11:26.395Z,12.30
2018-09-23T14:14:01.861Z,12.40
2018-09-23T14:16:37.386Z,12.50
2018-09-23T14:19:12.637Z,12.50
2018-09-23T14:21:48.130Z,12.50
2018-09-23T14:24:23.577Z,12.60
2018-09-23T14:26:59.147Z,12.50
2018-09-23T14:29:34.581Z,12.40
2018-09-23T14:32:16.901Z,12.40
2018-09-23T14:34:53.354Z,12.40
2018-09-23T14:37:29.273Z,12.50
2018-09-23T14:40:04.753Z,12.60
2018-09-23T14:42:40.557Z,12.60
2018-09-23T14:45:15.954Z,12.60
2018-09-23T14:47:51.520Z,12.50
2018-09-23T14:50:26.911Z,12.40
2018-09-23T14:53:02.578Z,12.20
2018-09-23T14:55:38.144Z,12.20
2018-09-23T14:58:13.714Z,12.30
2018-09-23T15:00:49.022Z,12.30
2018-09-23T15:03:24.632Z,12.30
2018-09-23T15:06:00.152Z,12.10
2018-09-23T15:08:35.692Z,12.10
2018-09-23T15:11:11.009Z,12.10
2018-09-23T15:13:46.749Z,12.20
2018-09-23T15:16:22.163Z,12.20
2018-09-23T15:18:57.989Z,12.20
2018-09-23T15:21:33.426Z,12.30
2018-09-23T15:24:09.141Z,12.30
2018-09-23T15:26:44.469Z,12.40
2018-09-23T15:29:19.985Z,12.40
2018-09-23T15:31:55.265Z,12.40
2018-09-23T15:34:30.787Z,12.40
2018-09-23T15:37:06.233Z,12.30
2018-09-23T15:39:41.759Z,12.30
2018-09-23T15:42:17.446Z,12.10
2018-09-23T15:44:53.052Z,12.10
2018-09-23T15:47:28.261Z,12.10
2018-09-23T15:50:03.971Z,12.10
2018-09-23T15:52:39.489Z,12.10
2018-09-23T15:55:14.936Z,12.00
2018-09-23T15:57:51.111Z,12.00
2018-09-23T16:00:26.601Z,12.00
2018-09-23T16:03:01.987Z,11.90
2018-09-23T16:05:37.657Z,11.90
2018-09-23T16:08:12.849Z,11.80
2018-09-23T16:10:48.424Z,11.90
2018-09-23T16:13:23.861Z,11.80
2018-09-23T16:15:59.537Z,11.80
2018-09-23T16:18:35.142Z,11.70
2018-09-23T16:21:10.525Z,11.80
2018-09-23T16:23:46.058Z,11.70
2018-09-23T16:26:21.839Z,11.70
2018-09-23T16:28:56.500Z,11.60
2018-09-23T16:31:31.532Z,11.60
2018-09-23T16:34:06.228Z,11.60
2018-09-23T16:36:41.262Z,11.60
2018-09-23T16:39:15.895Z,11.50
2018-09-23T16:41:50.926Z,11.50
2018-09-23T16:44:26.209Z,11.50
2018-09-23T16:47:01.669Z,11.50
2018-09-23T16:49:37.201Z,11.50
2018-09-23T16:52:12.810Z,11.40
2018-09-23T16:54:48.530Z,11.40
2018-09-23T16:57:23.983Z,11.40
2018-09-23T16:59:59.574Z,11.30
2018-09-23T17:02:35.317Z,11.30
2018-09-23T17:05:10.747Z,11.30
2018-09-23T17:07:46.214Z,11.30
2018-09-23T17:10:21.682Z,11.20
2018-09-23T17:12:57.229Z,11.20
2018-09-23T17:15:32.782Z,11.10
2018-09-23T17:18:08.583Z,11.10
2018-09-23T17:20:44.112Z,11.10
2018-09-23T17:23:19.479Z,11.00
2018-09-23T17:25:54.839Z,11.00
2018-09-23T17:28:30.463Z,11.00
2018-09-23T17:31:05.721Z,11.00
2018-09-23T17:33:41.297Z,11.00
2018-09-23T17:36:16.673Z,11.00
2018-09-23T17:38:52.351Z,10.90
2018-09-23T17:41:27.808Z,10.90
2018-09-23T17:44:03.339Z,10.80
2018-09-23T17:46:38.710Z,10.80
2018-09-23T17:49:14.150Z,10.80
2018-09-23T17:51:50.390Z,10.80
2018-09-23T17:54:25.870Z,10.70
2018-09-23T17:57:01.281Z,10.70
2018-09-23T17:59:36.766Z,10.70
2018-09-23T18:02:12.267Z,10.70
2018-09-23T18:04:47.709Z,10.60
2018-09-23T18:07:23.244Z,10.60
2018-09-23T18:09:58.806Z,10.60
2018-09-23T18:12:34.578Z,10.60
2018-09-23T18:15:10.155Z,10.60
2018-09-23T18:17:45.476Z,10.60
2018-09-23T18:20:21.042Z,10.50
2018-09-23T18:22:56.398Z,10.50
2018-09-23T18:25:32.083Z,10.40
2018-09-23T18:28:07.453Z,10.40
2018-09-23T18:30:43.089Z,10.30
2018-09-23T18:33:18.621Z,10.30
2018-09-23T18:35:54.383Z,10.30
2018-09-23T18:38:29.959Z,10.30
2018-09-23T18:41:05.624Z,10.30
2018-09-23T18:43:41.480Z,10.30
2018-09-23T18:46:16.985Z,10.30
2018-09-23T18:48:52.449Z,10.30
2018-09-23T18:51:27.965Z,10.30
2018-09-23T18:54:08.547Z,10.30
2018-09-23T18:56:44.213Z,10.30
2018-09-23T18:59:19.736Z,10.30
2018-09-23T19:01:55.454Z,10.30
2018-09-23T19:04:30.969Z,10.30
2018-09-23T19:07:06.616Z,10.20
2018-09-23T19:09:41.959Z,10.20
2018-09-23T19:12:17.569Z,10.20
2018-09-23T19:14:52.816Z,10.20
2018-09-23T19:17:28.579Z,10.20
2018-09-23T19:20:09.865Z,10.20
2018-09-23T19:23:20.316Z,10.20
2018-09-23T19:25:55.817Z,10.10
2018-09-23T19:28:31.411Z,10.10
2018-09-23T19:31:06.781Z,10.00
2018-09-23T19:33:42.368Z,10.00
2018-09-23T19:36:17.877Z,9.90
2018-09-23T19:38:53.497Z,9.90
2018-09-23T19:41:29.354Z,9.80
2018-09-23T19:44:05.209Z,9.90
2018-09-23T19:46:40.699Z,9.90
2018-09-23T19:49:16.309Z,9.90
2018-09-23T19:51:51.560Z,9.90
2018-09-23T19:54:27.084Z,9.90
2018-09-23T19:57:02.647Z,10.00
2018-09-23T19:59:38.213Z,10.00
2018-09-23T20:02:13.724Z,10.00
2018-09-23T20:04:49.432Z,9.90
2018-09-23T20:07:25.436Z,9.80
2018-09-23T20:10:01.502Z,9.80
2018-09-23T20:12:36.940Z,9.70
2018-09-23T20:15:17.305Z,9.60
2018-09-23T20:17:52.661Z,9.60
2018-09-23T20:20:28.397Z,9.50
2018-09-23T20:23:03.701Z,9.40
2018-09-23T20:25:39.180Z,9.40
2018-09-23T20:28:14.449Z,9.40
2018-09-23T20:30:50.149Z,9.30
2018-09-23T20:33:26.202Z,9.30
2018-09-23T20:36:02.129Z,9.30
2018-09-23T20:38:37.613Z,9.20
2018-09-23T20:41:13.095Z,9.20
2018-09-23T20:43:48.879Z,9.20
2018-09-23T20:46:24.545Z,9.20
2018-09-23T20:49:00.065Z,9.10
2018-09-23T20:51:35.682Z,9.10
2018-09-23T20:54:11.205Z,9.10
2018-09-23T20:56:46.622Z,9.10
2018-09-23T20:59:22.037Z,9.10
2018-09-23T21:01:57.844Z,9.10
2018-09-23T21:04:33.389Z,9.10
2018-09-23T21:07:09.026Z,9.10
2018-09-23T21:09:44.506Z,9.00
2018-09-23T21:12:20.159Z,9.00
2018-09-23T21:14:55.561Z,9.10
2018-09-23T21:17:31.080Z,9.00
2018-09-23T21:20:06.977Z,9.00
2018-09-23T21:22:42.474Z,9.00
2018-09-23T21:25:17.990Z,9.00
2018-09-23T21:27:53.568Z,9.00
2018-09-23T21:30:29.014Z,9.00
2018-09-23T21:33:04.758Z,9.10
2018-09-23T21:35:40.210Z,9.10
2018-09-23T21:38:15.794Z,9.10
2018-09-23T21:40:51.136Z,9.20
2018-09-23T21:43:27.137Z,9.20
2018-09-23T21:46:02.396Z,9.30
2018-09-23T21:48:37.860Z,9.30
2018-09-23T21:51:13.411Z,9.30
2018-09-23T21:53:49.141Z,9.30
2018-09-23T21:56:24.660Z,9.30
2018-09-23T21:59:00.065Z,9.20
2018-09-23T22:01:35.569Z,9.10
2018-09-23T22:04:11.944Z,9.00
2018-09-23T22:06:47.238Z,9.00
2018-09-23T22:09:23.844Z,8.90
2018-09-23T22:11:59.072Z,8.80
2018-09-23T22:14:34.841Z,8.90
2018-09-23T22:17:10.256Z,8.90
2018-09-23T22:19:46.353Z,9.00
2018-09-23T22:22:21.837Z,9.00
2018-09-23T22:24:57.578Z,9.10
2018-09-23T22:27:33.029Z,9.20
2018-09-23T22:30:08.669Z,9.20
2018-09-23T22:32:43.962Z,9.10
2018-09-23T22:35:19.693Z,9.10
2018-09-23T22:37:55.180Z,9.10
2018-09-23T22:40:30.824Z,9.00
2018-09-23T22:43:07.365Z,9.00
2018-09-23T22:45:43.036Z,9.00
2018-09-23T22:48:18.234Z,9.00
2018-09-23T22:50:53.919Z,9.00
2018-09-23T22:53:29.335Z,9.00
2018-09-23T22:56:04.933Z,9.00
2018-09-23T22:58:40.356Z,9.00
2018-09-23T23:01:15.926Z,9.00
2018-09-23T23:03:51.256Z,9.10
2018-09-23T23:06:26.812Z,9.10
2018-09-23T23:09:02.200Z,9.20
2018-09-23T23:11:37.811Z,9.10
2018-09-23T23:14:13.313Z,9.10
2018-09-23T23:16:49.035Z,9.10
2018-09-23T23:19:24.517Z,9.10
2018-09-23T23:22:00.197Z,9.20
2018-09-23T23:24:35.529Z,9.20
2018-09-23T23:27:10.999Z,9.20
2018-09-23T23:29:46.464Z,9.10
2018-09-23T23:32:22.088Z,9.20
2018-09-23T23:34:57.404Z,9.20
2018-09-23T23:37:32.877Z,9.30
2018-09-23T23:40:09.012Z,9.30
2018-09-23T23:42:44.771Z,9.30
2018-09-23T23:45:20.312Z,9.30
2018-09-23T23:47:55.798Z,9.30
2018-09-23T23:50:31.271Z,9.20
2018-09-23T23:53:06.764Z,9.10
2018-09-23T23:55:42.380Z,9.00
2018-09-23T23:58:18.200Z,8.90
